ADDS METAR Data INFO
IDs: Format: Raw Decoded Include TAF

Data at: 1309 UTC 21 May 2018

METAR for:KVTA (Newark/Heath Arpt, OH, US)
Text:KVTA 211254Z AUTO 04006KT 10SM FEW070 17/14 A3019 RMK AO2 RAE1158 SLP218 P0000 T01720139
Temperature: 17.2°C ( 63°F)
Dewpoint: 13.9°C ( 57°F) [RH = 81%]
Pressure (altimeter):30.19 inches Hg (1022.4 mb) [Sea level pressure: 1021.8 mb]
Winds:from the NE (40 degrees) at 7 MPH (6 knots; 3.1 m/s)
Visibility:10 or more sm (16+ km)
Ceiling:at least 12,000 feet AGL
Clouds: few clouds at 7000 feet AGL
QC Flag:automated observation with no human augmentation